Time;durP1;ratioP1;P1;durP2;ratioP2;P2;SDS_P1;SDS_P2;PMS_P1;PMS_P2;Temp;Humidity;BMP_temperature;BMP_pressure;BME280_temperature;BME280_humidity;BME280_pressure;Samples;Min_cycle;Max_cycle;Signal;HPM_P1;HPM_P2
2023/03/05 00:00:25;;;;;;;2.55;0.90;;;;;;;;;;2080201;28;20104;-78
2023/03/05 00:01:44;;;;;;;7.45;0.68;;;;;;;;;;2079349;28;20045;-78
2023/03/05 00:03:03;;;;;;;0.90;0.50;;;;;;;;;;2073928;28;20038;-78
2023/03/05 00:04:22;;;;;;;1.65;0.50;;;;;;;;;;2078176;28;20034;-78
2023/03/05 00:05:41;;;;;;;3.53;0.82;;;;;;;;;;2079759;28;20041;-78
2023/03/05 00:07:00;;;;;;;4.03;0.65;;;;;;;;;;2073837;28;20499;-77
2023/03/05 00:08:19;;;;;;;3.17;0.75;;;;;;;;;;2072749;28;20426;-78
2023/03/05 00:09:38;;;;;;;2.65;0.52;;;;;;;;;;2070924;28;20121;-78
2023/03/05 00:11:05;;;;;;;5.35;0.60;;;;;;;;;;2077701;28;20034;-78
2023/03/05 00:12:24;;;;;;;2.28;0.40;;;;;;;;;;2080106;28;20021;-80
2023/03/05 00:13:43;;;;;;;3.50;0.40;;;;;;;;;;2071657;28;20026;-78
2023/03/05 00:15:03;;;;;;;2.03;0.55;;;;;;;;;;2077783;28;20025;-78
2023/03/05 00:16:21;;;;;;;2.75;0.30;;;;;;;;;;2078198;28;20026;-78
2023/03/05 00:17:41;;;;;;;1.08;0.52;;;;;;;;;;2074334;28;20577;-78
2023/03/05 00:19:00;;;;;;;3.47;0.77;;;;;;;;;;2069194;28;20026;-78
2023/03/05 00:20:19;;;;;;;2.75;0.52;;;;;;;;;;2079342;28;20018;-78
2023/03/05 00:21:40;;;;;;;5.85;0.68;;;;;;;;;;2080782;28;20018;-78
2023/03/05 00:22:59;;;;;;;4.35;0.75;;;;;;;;;;2085277;28;20050;-80
2023/03/05 00:24:18;;;;;;;3.47;0.60;;;;;;;;;;2082897;28;20006;-79
2023/03/05 00:25:39;;;;;;;5.43;0.65;;;;;;;;;;2084294;28;20029;-80
2023/03/05 00:26:58;;;;;;;1.05;0.35;;;;;;;;;;2087607;28;20029;-79
2023/03/05 00:28:17;;;;;;;1.55;0.50;;;;;;;;;;2082478;28;20057;-79
2023/03/05 00:29:36;;;;;;;1.90;0.68;;;;;;;;;;2086445;28;20037;-78
2023/03/05 00:30:58;;;;;;;1.55;0.30;;;;;;;;;;2089140;28;20033;-78
2023/03/05 00:32:17;;;;;;;2.83;0.50;;;;;;;;;;2089031;28;20041;-78
2023/03/05 00:33:36;;;;;;;1.55;0.60;;;;;;;;;;2087392;28;20025;-78
2023/03/05 00:34:55;;;;;;;5.80;0.77;;;;;;;;;;2074988;28;20034;-78
2023/03/05 00:36:14;;;;;;;3.92;0.70;;;;;;;;;;2079828;28;20030;-78
2023/03/05 00:37:33;;;;;;;2.55;0.50;;;;;;;;;;2081023;28;20072;-77
2023/03/05 00:38:52;;;;;;;1.58;0.77;;;;;;;;;;2083546;28;20034;-78
2023/03/05 00:40:11;;;;;;;2.03;0.73;;;;;;;;;;2078579;28;20713;-77
2023/03/05 00:41:30;;;;;;;2.42;0.50;;;;;;;;;;2071291;28;20046;-78
2023/03/05 00:42:49;;;;;;;1.10;0.32;;;;;;;;;;2072038;28;20042;-78
2023/03/05 00:44:08;;;;;;;4.43;0.40;;;;;;;;;;2079273;28;20130;-77
2023/03/05 00:45:27;;;;;;;2.22;0.50;;;;;;;;;;2082040;28;21018;-77
2023/03/05 00:46:46;;;;;;;1.35;0.40;;;;;;;;;;2081895;28;20041;-78
2023/03/05 00:48:06;;;;;;;2.55;0.32;;;;;;;;;;2081141;28;20101;-78
2023/03/05 00:49:24;;;;;;;3.08;0.60;;;;;;;;;;2073204;28;20030;-78
2023/03/05 00:50:43;;;;;;;4.00;0.63;;;;;;;;;;2074491;28;20029;-78
2023/03/05 00:52:02;;;;;;;1.38;0.45;;;;;;;;;;2073492;28;20018;-78
2023/03/05 00:53:22;;;;;;;2.83;0.43;;;;;;;;;;2073432;28;20104;-78
2023/03/05 00:54:41;;;;;;;1.70;0.50;;;;;;;;;;2071401;28;20495;-78
2023/03/05 00:55:59;;;;;;;2.78;0.50;;;;;;;;;;2077853;28;20021;-78
2023/03/05 00:57:18;;;;;;;6.82;0.70;;;;;;;;;;2073956;28;20026;-78
2023/03/05 00:58:38;;;;;;;3.58;0.80;;;;;;;;;;2078919;28;20529;-79
2023/03/05 00:59:57;;;;;;;2.75;0.60;;;;;;;;;;2072827;28;20061;-78
2023/03/05 01:01:16;;;;;;;2.47;0.80;;;;;;;;;;2072795;28;20033;-76
2023/03/05 01:02:35;;;;;;;2.10;0.43;;;;;;;;;;2078450;28;20077;-78
2023/03/05 01:03:56;;;;;;;4.68;0.55;;;;;;;;;;2082017;28;20033;-78
2023/03/05 01:05:15;;;;;;;1.10;0.40;;;;;;;;;;2080250;28;20033;-78
2023/03/05 01:06:34;;;;;;;2.33;0.50;;;;;;;;;;2081586;28;20534;-78
2023/03/05 01:07:54;;;;;;;2.00;0.80;;;;;;;;;;2080876;28;20494;-78
2023/03/05 01:09:13;;;;;;;4.93;0.77;;;;;;;;;;2079488;28;20029;-78
2023/03/05 01:10:31;;;;;;;3.60;1.00;;;;;;;;;;2071315;28;20034;-79
2023/03/05 01:11:51;;;;;;;4.03;0.73;;;;;;;;;;2071787;28;20037;-78
2023/03/05 01:13:12;;;;;;;0.82;0.43;;;;;;;;;;2071847;28;20030;-78
2023/03/05 01:14:33;;;;;;;0.45;0.30;;;;;;;;;;2079705;28;20018;-78
2023/03/05 01:15:52;;;;;;;1.60;0.50;;;;;;;;;;2073354;28;20038;-78
2023/03/05 01:17:11;;;;;;;1.73;0.70;;;;;;;;;;2072026;28;20030;-78
2023/03/05 01:18:29;;;;;;;2.67;0.47;;;;;;;;;;2066420;28;20029;-78
2023/03/05 01:19:48;;;;;;;3.60;0.65;;;;;;;;;;2077938;28;20034;-78
2023/03/05 01:21:07;;;;;;;2.55;0.75;;;;;;;;;;2075602;28;20121;-78
2023/03/05 01:22:26;;;;;;;2.55;0.40;;;;;;;;;;2072499;28;20061;-78
2023/03/05 01:23:45;;;;;;;4.43;0.70;;;;;;;;;;2077854;28;20041;-78
2023/03/05 01:25:04;;;;;;;1.55;0.50;;;;;;;;;;2081135;28;20034;-79
2023/03/05 01:26:23;;;;;;;3.42;0.50;;;;;;;;;;2080298;28;20443;-78
2023/03/05 01:27:42;;;;;;;0.82;0.52;;;;;;;;;;2079675;28;20025;-78
2023/03/05 01:29:01;;;;;;;1.73;0.50;;;;;;;;;;2079846;28;20029;-78
2023/03/05 01:30:20;;;;;;;6.88;1.00;;;;;;;;;;2079873;28;20849;-79
2023/03/05 01:31:39;;;;;;;1.48;0.45;;;;;;;;;;2080703;28;20030;-78
2023/03/05 01:32:58;;;;;;;6.55;0.40;;;;;;;;;;2081445;28;20459;-79
2023/03/05 01:34:17;;;;;;;5.40;0.70;;;;;;;;;;2079652;28;20029;-77
2023/03/05 01:35:36;;;;;;;1.98;0.32;;;;;;;;;;2073399;28;20494;-79
2023/03/05 01:36:55;;;;;;;2.97;0.70;;;;;;;;;;2077910;28;20533;-78
2023/03/05 01:38:15;;;;;;;2.72;0.40;;;;;;;;;;2080946;28;20037;-79
2023/03/05 01:39:35;;;;;;;1.63;0.40;;;;;;;;;;2079971;28;20029;-78
2023/03/05 01:40:54;;;;;;;3.25;0.52;;;;;;;;;;2073981;28;20030;-78
2023/03/05 01:42:13;;;;;;;3.55;0.60;;;;;;;;;;2077897;28;20034;-78
2023/03/05 01:43:32;;;;;;;1.40;0.63;;;;;;;;;;2081341;28;20045;-77
2023/03/05 01:45:00;;;;;;;2.83;0.40;;;;;;;;;;2079092;28;20057;-78
2023/03/05 01:46:26;;;;;;;4.88;0.50;;;;;;;;;;2078172;28;20402;-78
2023/03/05 01:47:45;;;;;;;2.72;0.50;;;;;;;;;;2071759;28;20125;-78
2023/03/05 01:49:22;;;;;;;0.98;0.45;;;;;;;;;;2068048;28;20154;-77
2023/03/05 01:50:42;;;;;;;0.95;0.55;;;;;;;;;;2081852;28;20033;-77
2023/03/05 01:52:01;;;;;;;3.42;0.40;;;;;;;;;;2080505;28;20022;-78
2023/03/05 01:53:19;;;;;;;0.63;0.30;;;;;;;;;;2075257;28;20022;-78
2023/03/05 01:54:46;;;;;;;3.58;0.47;;;;;;;;;;2076437;28;20471;-78
2023/03/05 01:56:06;;;;;;;5.28;0.70;;;;;;;;;;2079679;28;20120;-78
2023/03/05 01:57:31;;;;;;;1.75;0.47;;;;;;;;;;2073164;28;20034;-78
2023/03/05 01:58:50;;;;;;;4.53;0.77;;;;;;;;;;2078230;28;20052;-78
2023/03/05 02:00:18;;;;;;;1.95;0.50;;;;;;;;;;2080625;28;20022;-78
2023/03/05 02:01:42;;;;;;;2.58;0.47;;;;;;;;;;2068497;28;20018;-78
2023/03/05 02:03:03;;;;;;;4.82;1.13;;;;;;;;;;2076617;28;20022;-77
2023/03/05 02:04:25;;;;;;;1.92;0.93;;;;;;;;;;2079069;28;20478;-78
2023/03/05 02:05:44;;;;;;;8.35;1.00;;;;;;;;;;2079288;28;20034;-78
2023/03/05 02:07:03;;;;;;;2.35;0.50;;;;;;;;;;2074020;28;20026;-78
2023/03/05 02:08:22;;;;;;;2.88;0.30;;;;;;;;;;2075545;28;20402;-78
2023/03/05 02:09:41;;;;;;;3.92;0.40;;;;;;;;;;2080128;28;20030;-78
2023/03/05 02:11:01;;;;;;;1.50;0.45;;;;;;;;;;2077150;28;20108;-78
2023/03/05 02:12:20;;;;;;;1.85;0.40;;;;;;;;;;2070130;28;20022;-80
2023/03/05 02:13:39;;;;;;;2.10;0.40;;;;;;;;;;2078206;28;20061;-78
2023/03/05 02:14:58;;;;;;;1.30;0.60;;;;;;;;;;2078768;28;20022;-77
2023/03/05 02:16:18;;;;;;;3.15;0.40;;;;;;;;;;2081149;28;20108;-78
2023/03/05 02:17:36;;;;;;;3.78;0.32;;;;;;;;;;2079719;28;20105;-78
2023/03/05 02:18:55;;;;;;;4.53;0.65;;;;;;;;;;2079845;28;20026;-78
2023/03/05 02:20:19;;;;;;;1.55;0.55;;;;;;;;;;2072096;28;20026;-79
2023/03/05 02:21:40;;;;;;;2.25;0.20;;;;;;;;;;2077172;28;20026;-78
2023/03/05 02:22:59;;;;;;;0.93;0.32;;;;;;;;;;2079435;28;20030;-78
2023/03/05 02:24:33;;;;;;;1.42;0.40;;;;;;;;;;2074626;28;20399;-78
2023/03/05 02:25:52;;;;;;;3.22;0.80;;;;;;;;;;2077546;28;20029;-78
2023/03/05 02:27:11;;;;;;;0.80;0.32;;;;;;;;;;2081909;28;20053;-78
2023/03/05 02:28:39;;;;;;;3.00;0.63;;;;;;;;;;2080571;28;20081;-78
2023/03/05 02:29:58;;;;;;;2.70;0.93;;;;;;;;;;2081182;28;20038;-79
2023/03/05 02:31:18;;;;;;;2.08;0.45;;;;;;;;;;2080277;28;20104;-78
2023/03/05 02:32:37;;;;;;;1.88;0.50;;;;;;;;;;2080275;28;20074;-79
2023/03/05 02:33:56;;;;;;;0.82;0.20;;;;;;;;;;2080804;28;20034;-78
2023/03/05 02:35:15;;;;;;;3.95;0.60;;;;;;;;;;2081104;28;20021;-78
2023/03/05 02:36:34;;;;;;;0.95;0.60;;;;;;;;;;2080541;28;20077;-78
2023/03/05 02:37:53;;;;;;;3.15;0.30;;;;;;;;;;2081016;28;20104;-78
2023/03/05 02:39:12;;;;;;;1.42;0.47;;;;;;;;;;2081649;28;20033;-78
2023/03/05 02:40:31;;;;;;;0.80;0.47;;;;;;;;;;2081433;28;20030;-78
2023/03/05 02:41:50;;;;;;;1.08;0.25;;;;;;;;;;2076314;28;20116;-78
2023/03/05 02:43:09;;;;;;;2.40;0.57;;;;;;;;;;2068776;28;20548;-79
2023/03/05 02:44:28;;;;;;;2.38;0.25;;;;;;;;;;2072304;28;20046;-78
2023/03/05 02:45:47;;;;;;;0.60;0.38;;;;;;;;;;2072698;28;20061;-78
2023/03/05 02:47:06;;;;;;;2.50;0.40;;;;;;;;;;2079016;28;20033;-78
2023/03/05 02:48:25;;;;;;;2.10;0.52;;;;;;;;;;2075651;28;20033;-78
2023/03/05 02:49:44;;;;;;;3.95;1.00;;;;;;;;;;2076474;28;20526;-78
2023/03/05 02:51:04;;;;;;;1.52;0.50;;;;;;;;;;2071871;28;20034;-78
2023/03/05 02:52:24;;;;;;;1.45;0.50;;;;;;;;;;2080302;28;20022;-77
2023/03/05 02:53:43;;;;;;;2.13;0.50;;;;;;;;;;2075726;28;20033;-78
2023/03/05 02:55:03;;;;;;;2.97;0.40;;;;;;;;;;2072486;28;20030;-78
2023/03/05 02:56:22;;;;;;;2.88;0.30;;;;;;;;;;2066973;28;20026;-77
2023/03/05 02:57:41;;;;;;;1.48;0.40;;;;;;;;;;2077783;28;20387;-78
2023/03/05 02:59:00;;;;;;;1.48;0.50;;;;;;;;;;2081365;28;20486;-78
2023/03/05 03:00:20;;;;;;;1.25;0.40;;;;;;;;;;2082462;28;20029;-78
2023/03/05 03:01:38;;;;;;;1.67;0.35;;;;;;;;;;2080413;28;20033;-78
2023/03/05 03:02:57;;;;;;;1.65;0.30;;;;;;;;;;2076756;28;20057;-78
2023/03/05 03:04:16;;;;;;;1.67;0.43;;;;;;;;;;2077219;28;20467;-78
2023/03/05 03:05:35;;;;;;;2.50;0.68;;;;;;;;;;2075259;28;20026;-78
2023/03/05 03:06:54;;;;;;;3.00;0.30;;;;;;;;;;2079069;28;20499;-78
2023/03/05 03:08:14;;;;;;;1.17;0.50;;;;;;;;;;2075808;28;20029;-78
2023/03/05 03:09:34;;;;;;;2.38;0.60;;;;;;;;;;2078524;28;20018;-78
2023/03/05 03:10:55;;;;;;;2.03;0.40;;;;;;;;;;2085483;28;20033;-77
2023/03/05 03:12:14;;;;;;;5.57;1.17;;;;;;;;;;2074409;28;20030;-78
2023/03/05 03:13:33;;;;;;;1.25;0.40;;;;;;;;;;2078091;28;20029;-78
2023/03/05 03:14:52;;;;;;;0.93;0.30;;;;;;;;;;2080772;28;20025;-78
2023/03/05 03:16:13;;;;;;;3.08;0.40;;;;;;;;;;2080579;28;20045;-78
2023/03/05 03:17:33;;;;;;;3.00;0.70;;;;;;;;;;2072738;28;20018;-78
2023/03/05 03:18:52;;;;;;;1.13;0.40;;;;;;;;;;2070209;28;20566;-78
2023/03/05 03:20:15;;;;;;;1.48;0.32;;;;;;;;;;2071282;28;20263;-77
2023/03/05 03:21:34;;;;;;;1.58;0.43;;;;;;;;;;2081924;28;20084;-78
2023/03/05 03:22:55;;;;;;;0.63;0.30;;;;;;;;;;2074775;28;20030;-79
2023/03/05 03:24:14;;;;;;;1.50;0.35;;;;;;;;;;2076927;28;20029;-77
2023/03/05 03:25:33;;;;;;;1.15;0.30;;;;;;;;;;2079136;28;20025;-78
2023/03/05 03:26:52;;;;;;;1.83;0.80;;;;;;;;;;2072848;28;20434;-78
2023/03/05 03:28:11;;;;;;;0.63;0.40;;;;;;;;;;2078388;28;20038;-78
2023/03/05 03:29:30;;;;;;;2.15;0.43;;;;;;;;;;2080575;28;20025;-78
2023/03/05 03:30:49;;;;;;;1.92;0.50;;;;;;;;;;2074282;28;20018;-78
2023/03/05 03:32:08;;;;;;;3.53;0.63;;;;;;;;;;2067665;28;20426;-78
2023/03/05 03:33:27;;;;;;;3.63;0.60;;;;;;;;;;2077231;28;20049;-77
2023/03/05 03:34:47;;;;;;;4.20;0.50;;;;;;;;;;2071384;28;20038;-77
2023/03/05 03:36:06;;;;;;;2.75;0.50;;;;;;;;;;2072758;28;20014;-78
2023/03/05 03:37:26;;;;;;;1.85;0.40;;;;;;;;;;2080401;28;20021;-78
2023/03/05 03:38:45;;;;;;;1.60;0.60;;;;;;;;;;2080104;28;20473;-78
2023/03/05 03:40:04;;;;;;;2.38;0.43;;;;;;;;;;2081757;28;20034;-77
2023/03/05 03:41:24;;;;;;;2.15;0.45;;;;;;;;;;2081820;28;20077;-78
2023/03/05 03:42:43;;;;;;;2.90;0.55;;;;;;;;;;2081510;28;20498;-77
2023/03/05 03:44:03;;;;;;;1.08;0.45;;;;;;;;;;2075234;28;20490;-78
2023/03/05 03:45:23;;;;;;;1.55;0.68;;;;;;;;;;2070846;28;20034;-78
2023/03/05 03:46:43;;;;;;;1.95;0.60;;;;;;;;;;2078525;28;20037;-78
2023/03/05 03:48:02;;;;;;;1.55;0.40;;;;;;;;;;2081712;28;20029;-77
2023/03/05 03:49:22;;;;;;;4.47;0.75;;;;;;;;;;2074628;28;20029;-77
2023/03/05 03:50:41;;;;;;;2.72;0.70;;;;;;;;;;2077416;28;20390;-78
2023/03/05 03:52:00;;;;;;;2.72;0.50;;;;;;;;;;2079421;28;20030;-78
2023/03/05 03:53:19;;;;;;;1.45;0.77;;;;;;;;;;2080673;28;20113;-78
2023/03/05 03:54:38;;;;;;;0.60;0.30;;;;;;;;;;2075884;28;20030;-78
2023/03/05 03:55:58;;;;;;;3.38;0.28;;;;;;;;;;2076625;28;20030;-77
2023/03/05 03:57:17;;;;;;;3.22;0.50;;;;;;;;;;2074535;28;20013;-78
2023/03/05 03:58:36;;;;;;;3.90;0.40;;;;;;;;;;2078715;28;20106;-77
2023/03/05 03:59:55;;;;;;;2.10;0.30;;;;;;;;;;2074405;28;20033;-78
2023/03/05 04:01:14;;;;;;;2.05;0.40;;;;;;;;;;2072994;28;20030;-77
2023/03/05 04:02:33;;;;;;;2.25;0.40;;;;;;;;;;2074716;28;20026;-78
2023/03/05 04:03:52;;;;;;;2.22;0.40;;;;;;;;;;2072122;28;20422;-77
2023/03/05 04:05:10;;;;;;;1.95;0.30;;;;;;;;;;2078645;28;20033;-77
2023/03/05 04:06:30;;;;;;;2.15;0.40;;;;;;;;;;2079800;28;20026;-77
2023/03/05 04:07:49;;;;;;;0.73;0.57;;;;;;;;;;2080441;28;20033;-77
2023/03/05 04:09:08;;;;;;;3.10;0.50;;;;;;;;;;2080520;28;20029;-78
2023/03/05 04:10:27;;;;;;;2.85;0.40;;;;;;;;;;2079824;28;20033;-78
2023/03/05 04:11:46;;;;;;;1.52;0.30;;;;;;;;;;2070630;28;20041;-77
2023/03/05 04:13:05;;;;;;;3.83;0.40;;;;;;;;;;2075516;28;20030;-78
2023/03/05 04:14:25;;;;;;;1.58;0.63;;;;;;;;;;2074110;28;20022;-78
2023/03/05 04:15:44;;;;;;;3.17;0.30;;;;;;;;;;2072522;28;20030;-78
2023/03/05 04:17:03;;;;;;;1.40;0.30;;;;;;;;;;2070992;28;20022;-77
2023/03/05 04:18:22;;;;;;;0.93;0.68;;;;;;;;;;2078866;28;20112;-79
2023/03/05 04:19:41;;;;;;;2.38;0.73;;;;;;;;;;2071650;28;20026;-78
2023/03/05 04:21:00;;;;;;;0.70;0.47;;;;;;;;;;2073377;28;20038;-78
2023/03/05 04:22:19;;;;;;;2.45;0.43;;;;;;;;;;2081015;28;20034;-78
2023/03/05 04:23:38;;;;;;;1.88;0.63;;;;;;;;;;2083122;28;20034;-79
2023/03/05 04:24:57;;;;;;;2.65;0.50;;;;;;;;;;2082048;28;20022;-77
2023/03/05 04:26:16;;;;;;;3.40;0.45;;;;;;;;;;2082161;28;20034;-77
2023/03/05 04:27:36;;;;;;;0.50;0.20;;;;;;;;;;2083482;28;20093;-78
2023/03/05 04:28:55;;;;;;;2.00;0.30;;;;;;;;;;2087444;28;20033;-78
2023/03/05 04:30:14;;;;;;;3.60;0.50;;;;;;;;;;2084012;28;20022;-79
2023/03/05 04:31:33;;;;;;;0.93;0.80;;;;;;;;;;2083938;28;20014;-79
2023/03/05 04:32:53;;;;;;;1.25;0.20;;;;;;;;;;2088122;28;20029;-78
2023/03/05 04:34:12;;;;;;;8.90;0.70;;;;;;;;;;2081873;28;20030;-77
2023/03/05 04:35:30;;;;;;;4.13;0.60;;;;;;;;;;2080501;28;20010;-78
2023/03/05 04:36:50;;;;;;;3.95;0.40;;;;;;;;;;2086457;28;20033;-75
2023/03/05 04:38:09;;;;;;;1.65;0.30;;;;;;;;;;2082748;28;20053;-78
2023/03/05 04:39:28;;;;;;;2.03;0.30;;;;;;;;;;2080821;28;20037;-78
2023/03/05 04:40:47;;;;;;;4.05;0.65;;;;;;;;;;2082045;28;20436;-78
2023/03/05 04:42:06;;;;;;;4.78;0.60;;;;;;;;;;2082859;28;20462;-77
2023/03/05 04:43:25;;;;;;;1.25;0.43;;;;;;;;;;2082293;28;20470;-78
2023/03/05 04:44:45;;;;;;;2.17;0.47;;;;;;;;;;2081988;28;20037;-76
2023/03/05 04:46:04;;;;;;;1.05;0.32;;;;;;;;;;2071939;28;20498;-77
2023/03/05 04:47:25;;;;;;;0.77;0.50;;;;;;;;;;2076486;28;20038;-76
2023/03/05 04:48:44;;;;;;;2.67;0.60;;;;;;;;;;2080635;28;20038;-77
2023/03/05 04:50:03;;;;;;;3.33;0.70;;;;;;;;;;2079833;28;20025;-78
2023/03/05 04:51:22;;;;;;;1.13;0.50;;;;;;;;;;2080863;28;20081;-78
2023/03/05 04:52:42;;;;;;;0.70;0.60;;;;;;;;;;2074934;28;20096;-77
2023/03/05 04:54:01;;;;;;;1.85;0.55;;;;;;;;;;2079556;28;20029;-77
2023/03/05 04:55:20;;;;;;;0.32;0.20;;;;;;;;;;2074314;28;20651;-78
2023/03/05 04:56:39;;;;;;;3.55;0.57;;;;;;;;;;2072297;28;20022;-79
2023/03/05 04:57:58;;;;;;;2.60;0.60;;;;;;;;;;2079282;28;20034;-78
2023/03/05 04:59:17;;;;;;;3.17;0.47;;;;;;;;;;2081368;28;20518;-78
2023/03/05 05:00:36;;;;;;;0.40;0.30;;;;;;;;;;2081700;28;20429;-76
2023/03/05 05:01:55;;;;;;;2.67;0.30;;;;;;;;;;2070302;28;20038;-78
2023/03/05 05:03:14;;;;;;;1.48;0.40;;;;;;;;;;2068502;28;20034;-78
2023/03/05 05:04:34;;;;;;;2.55;0.40;;;;;;;;;;2070688;28;20526;-78
2023/03/05 05:05:57;;;;;;;1.85;0.30;;;;;;;;;;2077787;28;20500;-78
2023/03/05 05:07:16;;;;;;;5.30;0.60;;;;;;;;;;2080139;28;20056;-81
2023/03/05 05:08:35;;;;;;;4.85;0.45;;;;;;;;;;2080226;28;20498;-80
2023/03/05 05:09:54;;;;;;;2.30;0.30;;;;;;;;;;2081283;28;20462;-81
2023/03/05 05:11:14;;;;;;;2.08;0.32;;;;;;;;;;2079723;28;20025;-80
2023/03/05 05:12:33;;;;;;;2.72;0.70;;;;;;;;;;2081786;28;20116;-81
2023/03/05 05:13:52;;;;;;;1.58;0.30;;;;;;;;;;2071552;28;20042;-80
2023/03/05 05:15:11;;;;;;;1.40;0.35;;;;;;;;;;2076802;28;20021;-81
2023/03/05 05:16:30;;;;;;;1.05;0.45;;;;;;;;;;2080213;28;20060;-81
2023/03/05 05:17:49;;;;;;;4.18;0.80;;;;;;;;;;2081361;28;20025;-81
2023/03/05 05:19:08;;;;;;;1.30;0.30;;;;;;;;;;2081254;28;20041;-81
2023/03/05 05:20:27;;;;;;;3.30;0.47;;;;;;;;;;2081538;28;20026;-80
2023/03/05 05:21:48;;;;;;;3.42;0.40;;;;;;;;;;2080992;28;20526;-81
2023/03/05 05:23:07;;;;;;;4.20;0.60;;;;;;;;;;2074498;28;20034;-79
2023/03/05 05:24:25;;;;;;;3.60;0.40;;;;;;;;;;2077605;28;20390;-79
2023/03/05 05:25:44;;;;;;;2.65;0.70;;;;;;;;;;2080817;28;20057;-79
2023/03/05 05:27:03;;;;;;;1.10;0.47;;;;;;;;;;2079729;28;20076;-82
2023/03/05 05:28:22;;;;;;;3.90;0.75;;;;;;;;;;2071757;28;20034;-81
2023/03/05 05:29:41;;;;;;;2.90;0.50;;;;;;;;;;2071819;28;20041;-81
2023/03/05 05:31:05;;;;;;;1.77;0.32;;;;;;;;;;2072843;28;20033;-81
2023/03/05 05:32:24;;;;;;;3.63;0.40;;;;;;;;;;2071773;28;20471;-79
2023/03/05 05:33:43;;;;;;;2.95;0.57;;;;;;;;;;2063852;28;20038;-81
2023/03/05 05:35:02;;;;;;;3.60;0.40;;;;;;;;;;2074391;28;20033;-81
2023/03/05 05:36:21;;;;;;;2.28;0.40;;;;;;;;;;2080258;28;20034;-81
2023/03/05 05:37:40;;;;;;;0.65;0.30;;;;;;;;;;2081221;28;20442;-81
2023/03/05 05:38:59;;;;;;;2.33;0.60;;;;;;;;;;2073892;28;20030;-80
2023/03/05 05:40:18;;;;;;;1.85;0.63;;;;;;;;;;2073440;28;20029;-77
2023/03/05 05:41:37;;;;;;;3.30;0.60;;;;;;;;;;2078838;28;20043;-77
2023/03/05 05:42:56;;;;;;;5.28;0.60;;;;;;;;;;2078742;28;20037;-78
2023/03/05 05:44:15;;;;;;;1.15;0.73;;;;;;;;;;2073819;28;20049;-78
2023/03/05 05:45:33;;;;;;;1.80;0.43;;;;;;;;;;2076303;28;20059;-77
2023/03/05 05:46:52;;;;;;;1.13;0.73;;;;;;;;;;2080766;28;20144;-78
2023/03/05 05:48:11;;;;;;;3.60;0.75;;;;;;;;;;2080433;28;20121;-77
2023/03/05 05:49:31;;;;;;;1.73;0.35;;;;;;;;;;2072782;28;20073;-77
2023/03/05 05:50:50;;;;;;;2.22;0.30;;;;;;;;;;2071199;28;20037;-77
2023/03/05 05:52:08;;;;;;;2.17;0.55;;;;;;;;;;2077475;28;20021;-78
2023/03/05 05:53:27;;;;;;;2.63;0.43;;;;;;;;;;2080362;28;20022;-75
2023/03/05 05:54:46;;;;;;;1.52;0.30;;;;;;;;;;2073008;28;20026;-76
2023/03/05 05:56:07;;;;;;;0.63;0.32;;;;;;;;;;2070888;28;20039;-76
2023/03/05 05:57:26;;;;;;;3.10;0.30;;;;;;;;;;2077559;28;20403;-76
2023/03/05 05:58:46;;;;;;;2.55;0.30;;;;;;;;;;2082514;28;20377;-76
2023/03/05 06:00:06;;;;;;;1.83;0.57;;;;;;;;;;2083237;28;20025;-76
2023/03/05 06:01:27;;;;;;;1.30;0.40;;;;;;;;;;2080522;28;20033;-76
2023/03/05 06:02:45;;;;;;;6.43;0.80;;;;;;;;;;2076238;28;20029;-78
2023/03/05 06:04:05;;;;;;;0.68;0.30;;;;;;;;;;2065602;28;20471;-76
2023/03/05 06:05:24;;;;;;;0.65;0.30;;;;;;;;;;2075054;28;20061;-77
2023/03/05 06:06:43;;;;;;;1.67;0.30;;;;;;;;;;2081898;28;20491;-77
2023/03/05 06:08:02;;;;;;;2.83;0.52;;;;;;;;;;2081376;28;20037;-77
2023/03/05 06:09:21;;;;;;;2.60;0.40;;;;;;;;;;2081354;28;20030;-79
2023/03/05 06:10:40;;;;;;;1.13;0.20;;;;;;;;;;2081262;28;20021;-77
2023/03/05 06:11:59;;;;;;;1.30;0.50;;;;;;;;;;2080125;28;20049;-77
2023/03/05 06:13:18;;;;;;;1.15;0.40;;;;;;;;;;2081115;28;20065;-76
2023/03/05 06:14:37;;;;;;;3.60;0.60;;;;;;;;;;2076231;28;20022;-77
2023/03/05 06:16:00;;;;;;;2.95;0.50;;;;;;;;;;2079511;28;20061;-78
2023/03/05 06:17:19;;;;;;;2.15;0.52;;;;;;;;;;2081972;28;20486;-76
2023/03/05 06:18:37;;;;;;;1.63;0.40;;;;;;;;;;2082645;28;20108;-77
2023/03/05 06:19:57;;;;;;;2.63;0.43;;;;;;;;;;2081554;28;20487;-77
2023/03/05 06:21:17;;;;;;;3.50;0.57;;;;;;;;;;2080888;28;20487;-78
2023/03/05 06:22:37;;;;;;;1.52;0.55;;;;;;;;;;2080897;28;20029;-77
2023/03/05 06:23:57;;;;;;;2.42;0.40;;;;;;;;;;2072817;28;20034;-77
2023/03/05 06:25:16;;;;;;;0.93;0.57;;;;;;;;;;2077426;28;20033;-77
2023/03/05 06:26:35;;;;;;;2.97;0.40;;;;;;;;;;2081664;28;20407;-77
2023/03/05 06:27:54;;;;;;;6.93;0.30;;;;;;;;;;2075533;28;20511;-77
2023/03/05 06:29:13;;;;;;;3.03;0.30;;;;;;;;;;2078840;28;20411;-76
2023/03/05 06:30:32;;;;;;;1.75;0.60;;;;;;;;;;2081605;28;20021;-77
2023/03/05 06:31:51;;;;;;;4.93;0.50;;;;;;;;;;2082306;28;20526;-77
2023/03/05 06:33:09;;;;;;;2.05;0.40;;;;;;;;;;2081576;28;20025;-78
2023/03/05 06:34:28;;;;;;;0.30;0.30;;;;;;;;;;2075228;28;20026;-77
2023/03/05 06:35:47;;;;;;;5.22;0.38;;;;;;;;;;2075656;28;20445;-76
2023/03/05 06:37:06;;;;;;;1.00;0.20;;;;;;;;;;2078818;28;20051;-76
2023/03/05 06:38:25;;;;;;;5.57;0.32;;;;;;;;;;2081300;28;20030;-77
2023/03/05 06:39:46;;;;;;;2.08;0.47;;;;;;;;;;2073744;28;20057;-76
2023/03/05 06:41:12;;;;;;;1.95;0.50;;;;;;;;;;2079193;28;20034;-77
2023/03/05 06:42:32;;;;;;;0.25;0.20;;;;;;;;;;2074194;28;20029;-77
2023/03/05 06:43:52;;;;;;;5.65;0.60;;;;;;;;;;2078372;28;20045;-77
2023/03/05 06:45:11;;;;;;;4.47;1.13;;;;;;;;;;2080591;28;20033;-76
2023/03/05 06:46:31;;;;;;;1.42;0.35;;;;;;;;;;2074597;28;20026;-77
2023/03/05 06:47:50;;;;;;;3.25;0.52;;;;;;;;;;2077795;28;20041;-77
2023/03/05 06:49:10;;;;;;;3.78;0.50;;;;;;;;;;2075867;28;20132;-77
2023/03/05 06:50:29;;;;;;;2.08;0.30;;;;;;;;;;2079761;28;20442;-77
2023/03/05 06:51:48;;;;;;;0.98;0.40;;;;;;;;;;2081031;28;20052;-78
2023/03/05 06:53:07;;;;;;;0.77;0.45;;;;;;;;;;2075642;28;20038;-77
2023/03/05 06:54:27;;;;;;;2.35;0.30;;;;;;;;;;2078157;28;20026;-76
2023/03/05 06:55:46;;;;;;;3.65;0.57;;;;;;;;;;2075503;28;20409;-77
2023/03/05 06:57:05;;;;;;;2.95;0.30;;;;;;;;;;2073315;28;20033;-76
2023/03/05 06:58:24;;;;;;;2.78;0.40;;;;;;;;;;2080810;28;20498;-77
2023/03/05 06:59:43;;;;;;;2.58;0.50;;;;;;;;;;2075901;28;20061;-77
2023/03/05 07:01:03;;;;;;;1.13;0.30;;;;;;;;;;2071125;28;20045;-77
2023/03/05 07:02:22;;;;;;;4.38;0.60;;;;;;;;;;2079016;28;20033;-77
2023/03/05 07:03:42;;;;;;;0.80;0.45;;;;;;;;;;2081273;28;20022;-77
2023/03/05 07:05:00;;;;;;;2.42;0.30;;;;;;;;;;2080688;28;20478;-77
2023/03/05 07:06:20;;;;;;;2.67;0.80;;;;;;;;;;2080620;28;20045;-77
2023/03/05 07:07:39;;;;;;;3.33;0.40;;;;;;;;;;2081476;28;20025;-77
2023/03/05 07:09:00;;;;;;;2.15;0.57;;;;;;;;;;2074110;28;20042;-77
2023/03/05 07:10:18;;;;;;;0.70;0.38;;;;;;;;;;2073982;28;20029;-77
2023/03/05 07:11:37;;;;;;;1.13;1.02;;;;;;;;;;2078045;28;20033;-76
2023/03/05 07:12:57;;;;;;;2.67;1.30;;;;;;;;;;2074766;28;20033;-77
2023/03/05 07:14:16;;;;;;;1.45;0.60;;;;;;;;;;2078947;28;20030;-77
2023/03/05 07:15:39;;;;;;;4.57;0.50;;;;;;;;;;2076877;28;20034;-78
2023/03/05 07:16:58;;;;;;;2.00;0.50;;;;;;;;;;2078994;28;20622;-77
2023/03/05 07:18:17;;;;;;;1.17;0.30;;;;;;;;;;2082637;28;20033;-77
2023/03/05 07:19:37;;;;;;;2.95;0.40;;;;;;;;;;2074268;28;20022;-77
2023/03/05 07:21:00;;;;;;;2.90;0.50;;;;;;;;;;2079044;28;20030;-77
2023/03/05 07:22:20;;;;;;;1.48;0.50;;;;;;;;;;2075719;28;20022;-77
2023/03/05 07:23:40;;;;;;;1.90;0.43;;;;;;;;;;2078403;28;20429;-77
2023/03/05 07:24:59;;;;;;;2.17;1.00;;;;;;;;;;2080588;28;20025;-77
2023/03/05 07:26:18;;;;;;;0.80;0.50;;;;;;;;;;2081364;28;20494;-78
2023/03/05 07:27:37;;;;;;;1.02;0.30;;;;;;;;;;2080650;28;20025;-78
2023/03/05 07:28:56;;;;;;;0.95;0.30;;;;;;;;;;2080090;28;20149;-77
2023/03/05 07:30:15;;;;;;;0.77;0.30;;;;;;;;;;2074113;28;20518;-77
2023/03/05 07:31:34;;;;;;;6.13;0.88;;;;;;;;;;2080506;28;20030;-77
2023/03/05 07:32:53;;;;;;;2.40;0.55;;;;;;;;;;2081137;28;20041;-77
2023/03/05 07:34:12;;;;;;;1.10;0.50;;;;;;;;;;2081738;28;20105;-77
2023/03/05 07:35:32;;;;;;;1.13;0.28;;;;;;;;;;2074986;28;20070;-77
2023/03/05 07:36:51;;;;;;;4.90;0.73;;;;;;;;;;2072697;28;20026;-77
2023/03/05 07:38:10;;;;;;;4.03;0.30;;;;;;;;;;2080031;28;20417;-76
2023/03/05 07:39:28;;;;;;;3.55;0.55;;;;;;;;;;2081598;28;20061;-77
2023/03/05 07:40:49;;;;;;;8.15;0.80;;;;;;;;;;2079065;28;20417;-77
2023/03/05 07:42:07;;;;;;;4.82;0.45;;;;;;;;;;2081189;28;20022;-77
2023/03/05 07:43:27;;;;;;;4.32;0.52;;;;;;;;;;2079839;28;20038;-75
2023/03/05 07:44:47;;;;;;;2.90;0.50;;;;;;;;;;2073697;28;20034;-76
2023/03/05 07:46:07;;;;;;;2.22;0.52;;;;;;;;;;2070592;28;20034;-76
2023/03/05 07:47:26;;;;;;;4.55;0.40;;;;;;;;;;2073137;28;20033;-76
2023/03/05 07:48:45;;;;;;;0.52;0.35;;;;;;;;;;2077660;28;20120;-77
2023/03/05 07:50:04;;;;;;;0.28;0.20;;;;;;;;;;2082486;28;20025;-78
2023/03/05 07:51:26;;;;;;;2.78;0.60;;;;;;;;;;2080421;28;20073;-76
2023/03/05 07:52:44;;;;;;;0.95;0.40;;;;;;;;;;2081200;28;20037;-78
2023/03/05 07:54:04;;;;;;;2.25;0.28;;;;;;;;;;2078375;28;20108;-77
2023/03/05 07:55:22;;;;;;;1.15;0.40;;;;;;;;;;2082047;28;20414;-76
2023/03/05 07:56:41;;;;;;;1.73;0.50;;;;;;;;;;2082358;28;20030;-76